Flaxville, Montana
Current Conditions -  °F | °C
As of 12:53 AM on Monday 22 Dec 2014 (Local Time) from KOLF Reporting Station
Overcast Overcast  
Wind Chill: 24°   Ceiling: 2200
Heat Index: 34°   Visibility: 10mi
Dew Point: 28°   Wind: 16mph
Humidity: 79%   Direction: 290°WNW
Pressure: 29.5"   Gusts: 26mph
Location:  48.8°N, 105.17°W
Report Text: KOLF 220753Z AUTO 29014G23KT 10SM BKN022 BKN045 OVC065 01/M02 A2950 RMK AO2 UPB03E07SNB07E42 SLP009 P0000 T00111022
Loading
Personal Weather Stations






























Interactive Weather Map New forecast layout! Learn more

10-Day Weather Forecast

Advertisements
Track Severe Weather on mobile